createdAt,value
2018-03-19T00:00:44.577Z,-3.73
2018-03-19T00:03:12.108Z,-3.74
2018-03-19T00:05:39.639Z,-3.78
2018-03-19T00:08:07.196Z,-3.83
2018-03-19T00:10:34.788Z,-3.87
2018-03-19T00:13:02.314Z,-3.94
2018-03-19T00:15:29.826Z,-3.97
2018-03-19T00:17:57.340Z,-4.03
2018-03-19T00:20:24.868Z,-4.09
2018-03-19T00:22:52.399Z,-4.07
2018-03-19T00:25:19.932Z,-4.13
2018-03-19T00:27:47.458Z,-4.18
2018-03-19T00:30:15.002Z,-4.21
2018-03-19T00:32:42.533Z,-4.21
2018-03-19T00:35:10.059Z,-4.26
2018-03-19T00:37:37.579Z,-4.30
2018-03-19T00:40:05.182Z,-4.29
2018-03-19T00:42:32.684Z,-4.35
2018-03-19T00:45:00.221Z,-4.36
2018-03-19T00:47:27.702Z,-4.40
2018-03-19T00:49:55.211Z,-4.34
2018-03-19T00:52:22.735Z,-4.37
2018-03-19T00:54:50.223Z,-4.44
2018-03-19T00:57:17.746Z,-4.46
2018-03-19T00:59:45.866Z,-4.42
2018-03-19T01:02:13.361Z,-4.49
2018-03-19T01:04:40.885Z,-4.48
2018-03-19T01:07:08.401Z,-4.55
2018-03-19T01:09:35.901Z,-4.57
2018-03-19T01:12:03.410Z,-4.56
2018-03-19T01:14:30.956Z,-4.61
2018-03-19T01:16:58.486Z,-4.64
2018-03-19T01:19:26.108Z,-4.66
2018-03-19T01:21:53.609Z,-4.67
2018-03-19T01:24:21.145Z,-4.72
2018-03-19T01:26:48.670Z,-4.75
2018-03-19T01:29:16.225Z,-4.75
2018-03-19T01:31:43.760Z,-4.76
2018-03-19T01:34:11.342Z,-4.78
2018-03-19T01:36:38.901Z,-4.82
2018-03-19T01:39:06.411Z,-4.83
2018-03-19T01:41:33.925Z,-4.83
2018-03-19T01:44:01.457Z,-4.86
2018-03-19T01:46:28.980Z,-4.92
2018-03-19T01:48:56.513Z,-4.93
2018-03-19T01:51:24.025Z,-4.92
2018-03-19T01:53:51.525Z,-4.94
2018-03-19T01:56:19.021Z,-4.90
2018-03-19T01:58:46.555Z,-4.96
2018-03-19T02:01:14.105Z,-4.97
2018-03-19T02:03:41.620Z,-5.02
2018-03-19T02:06:09.144Z,-5.04
2018-03-19T02:08:36.647Z,-5.06
2018-03-19T02:11:04.179Z,-5.06
2018-03-19T02:13:31.704Z,-5.11
2018-03-19T02:15:59.241Z,-5.12
2018-03-19T02:18:26.842Z,-5.18
2018-03-19T02:20:54.348Z,-5.14
2018-03-19T02:23:21.872Z,-5.21
2018-03-19T02:25:49.389Z,-5.23
2018-03-19T02:28:16.886Z,-5.24
2018-03-19T02:30:45.062Z,-5.25
2018-03-19T02:33:12.612Z,-5.27
2018-03-19T02:35:40.144Z,-5.27
2018-03-19T02:38:07.671Z,-5.25
2018-03-19T02:40:35.193Z,-5.24
2018-03-19T02:43:02.699Z,-5.22
2018-03-19T02:45:30.193Z,-5.26
2018-03-19T02:47:57.743Z,-5.25
2018-03-19T02:50:25.275Z,-5.30
2018-03-19T02:52:52.784Z,-5.30
2018-03-19T02:55:20.300Z,-5.31
2018-03-19T02:57:47.820Z,-5.36
2018-03-19T03:00:15.365Z,-5.40
2018-03-19T03:02:42.938Z,-5.43
2018-03-19T03:05:10.424Z,-5.48
2018-03-19T03:07:37.922Z,-5.49
2018-03-19T03:10:05.422Z,-5.48
2018-03-19T03:12:32.927Z,-5.54
2018-03-19T03:15:00.423Z,-5.56
2018-03-19T03:17:27.918Z,-5.56
2018-03-19T03:19:55.400Z,-5.58
2018-03-19T03:22:22.897Z,-5.59
2018-03-19T03:24:50.418Z,-5.60
2018-03-19T03:27:17.943Z,-5.63
2018-03-19T03:29:45.495Z,-5.62
2018-03-19T03:32:13.061Z,-5.56
2018-03-19T03:34:40.576Z,-5.60
2018-03-19T03:37:08.147Z,-5.61
2018-03-19T03:39:35.659Z,-5.63
2018-03-19T03:42:03.169Z,-5.63
2018-03-19T03:44:30.664Z,-5.63
2018-03-19T03:46:58.215Z,-5.64
2018-03-19T03:49:25.737Z,-5.61
2018-03-19T03:51:53.242Z,-5.63
2018-03-19T03:54:20.760Z,-5.68
2018-03-19T03:56:48.267Z,-5.67
2018-03-19T03:59:15.842Z,-5.68
2018-03-19T04:01:43.364Z,-5.66
2018-03-19T04:04:10.893Z,-5.65
2018-03-19T04:06:38.420Z,-5.66
2018-03-19T04:09:05.943Z,-5.63
2018-03-19T04:11:33.476Z,-5.69
2018-03-19T04:14:00.994Z,-5.66
2018-03-19T04:16:28.606Z,-5.69
2018-03-19T04:18:56.130Z,-5.70
2018-03-19T04:21:23.695Z,-5.70
2018-03-19T04:23:51.223Z,-5.71
2018-03-19T04:26:18.760Z,-5.72
2018-03-19T04:28:46.258Z,-5.72
2018-03-19T04:31:13.803Z,-5.77
2018-03-19T04:33:41.625Z,-5.79
2018-03-19T04:36:09.142Z,-5.78
2018-03-19T04:38:36.662Z,-5.72
2018-03-19T04:41:04.180Z,-5.76
2018-03-19T04:43:31.729Z,-5.79
2018-03-19T04:46:00.206Z,-5.81
2018-03-19T04:48:28.500Z,-5.80
2018-03-19T04:50:55.996Z,-5.87
2018-03-19T04:53:23.540Z,-5.82
2018-03-19T04:55:51.062Z,-5.86
2018-03-19T04:58:18.621Z,-5.88
2018-03-19T05:00:47.272Z,-5.89
2018-03-19T05:03:15.045Z,-5.90
2018-03-19T05:05:42.546Z,-5.94
2018-03-19T05:08:10.049Z,-6.00
2018-03-19T05:10:37.582Z,-6.01
2018-03-19T05:13:05.103Z,-5.98
2018-03-19T05:15:32.914Z,-6.00
2018-03-19T05:18:00.492Z,-6.01
2018-03-19T05:20:28.016Z,-6.09
2018-03-19T05:22:55.545Z,-6.12
2018-03-19T05:25:23.083Z,-6.25
2018-03-19T05:27:50.572Z,-6.28
2018-03-19T05:30:18.114Z,-6.29
2018-03-19T05:32:45.612Z,-6.31
2018-03-19T05:35:13.249Z,-6.33
2018-03-19T05:37:40.752Z,-6.32
2018-03-19T05:40:08.256Z,-6.30
2018-03-19T05:42:35.789Z,-6.31
2018-03-19T05:45:03.309Z,-6.31
2018-03-19T05:47:31.030Z,-6.30
2018-03-19T05:49:58.559Z,-6.30
2018-03-19T05:52:26.086Z,-6.26
2018-03-19T05:54:53.658Z,-6.22
2018-03-19T05:57:21.141Z,-6.19
2018-03-19T05:59:48.690Z,-6.21
2018-03-19T06:02:16.212Z,-6.21
2018-03-19T06:04:43.725Z,-6.16
2018-03-19T06:07:11.236Z,-6.17
2018-03-19T06:09:38.764Z,-5.98
2018-03-19T06:12:06.252Z,-5.85
2018-03-19T06:14:33.801Z,-5.70
2018-03-19T06:17:01.295Z,-5.55
2018-03-19T06:19:28.822Z,-5.76
2018-03-19T06:21:56.349Z,-5.71
2018-03-19T06:24:23.910Z,-5.70
2018-03-19T06:26:51.409Z,-5.62
2018-03-19T06:29:18.949Z,-5.59
2018-03-19T06:31:46.485Z,-5.51
2018-03-19T06:34:13.985Z,-5.49
2018-03-19T06:36:41.512Z,-5.44
2018-03-19T06:39:09.065Z,-5.24
2018-03-19T06:41:36.620Z,-5.16
2018-03-19T06:44:04.128Z,-5.11
2018-03-19T06:46:31.657Z,-4.99
2018-03-19T06:48:59.159Z,-4.65
2018-03-19T06:51:26.696Z,-4.27
2018-03-19T06:53:54.418Z,-4.07
2018-03-19T06:56:21.955Z,-3.97
2018-03-19T06:58:49.469Z,-3.86
2018-03-19T07:01:16.993Z,-4.11
2018-03-19T07:03:44.495Z,-3.85
2018-03-19T07:06:12.031Z,-4.22
2018-03-19T07:08:39.543Z,-4.29
2018-03-19T07:11:07.049Z,-4.06
2018-03-19T07:13:34.533Z,-4.02
2018-03-19T07:16:02.057Z,-4.10
2018-03-19T07:18:29.568Z,-3.92
2018-03-19T07:20:57.092Z,-3.71
2018-03-19T07:23:24.604Z,-3.78
2018-03-19T07:25:52.158Z,-3.35
2018-03-19T07:28:19.657Z,-3.18
2018-03-19T07:30:47.172Z,-3.44
2018-03-19T07:33:14.667Z,-2.93
2018-03-19T07:35:42.158Z,-3.13
2018-03-19T07:38:09.675Z,-2.78
2018-03-19T07:40:37.188Z,-2.02
2018-03-19T07:43:04.728Z,-2.27
2018-03-19T07:45:32.275Z,-2.00
2018-03-19T07:47:59.784Z,-1.69
2018-03-19T07:50:27.292Z,-1.26
2018-03-19T07:52:54.849Z,-1.32
2018-03-19T07:55:22.384Z,-1.05
2018-03-19T07:57:49.914Z,-1.07
2018-03-19T08:00:17.436Z,-0.85
2018-03-19T08:02:45.002Z,0.60
2018-03-19T08:05:12.537Z,1.56
2018-03-19T08:07:40.076Z,-0.13
2018-03-19T08:10:07.591Z,-0.50
2018-03-19T08:12:35.114Z,-0.51
2018-03-19T08:15:02.685Z,-1.01
2018-03-19T08:17:30.240Z,-0.03
2018-03-19T08:19:57.812Z,0.52
2018-03-19T08:22:25.329Z,-0.78
2018-03-19T08:24:52.858Z,0.03
2018-03-19T08:27:20.360Z,-0.05
2018-03-19T08:29:47.913Z,0.39
2018-03-19T08:32:15.444Z,0.11
2018-03-19T08:34:42.947Z,0.55
2018-03-19T08:37:10.454Z,0.32
2018-03-19T08:39:37.953Z,0.39
2018-03-19T08:42:05.510Z,0.10
2018-03-19T08:44:33.039Z,0.20
2018-03-19T08:47:00.545Z,1.31
2018-03-19T08:49:28.047Z,1.04
2018-03-19T08:51:55.600Z,0.67
2018-03-19T08:54:23.269Z,0.46
2018-03-19T08:56:51.023Z,0.45
2018-03-19T08:59:18.580Z,0.33
2018-03-19T09:01:46.179Z,0.81
2018-03-19T09:04:13.733Z,-0.40
2018-03-19T09:06:41.268Z,0.01
2018-03-19T09:09:08.796Z,0.30
2018-03-19T09:11:36.385Z,0.05
2018-03-19T09:14:03.907Z,0.13
2018-03-19T09:16:31.409Z,-0.15
2018-03-19T09:18:58.958Z,0.03
2018-03-19T09:21:26.530Z,-0.24
2018-03-19T09:23:54.082Z,-0.02
2018-03-19T09:26:21.576Z,-0.29
2018-03-19T09:28:49.132Z,-0.27
2018-03-19T09:31:16.708Z,-0.37
2018-03-19T09:33:44.213Z,0.16
2018-03-19T09:36:11.750Z,0.13
2018-03-19T09:38:39.251Z,0.25
2018-03-19T09:41:06.801Z,0.11
2018-03-19T09:43:34.320Z,0.12
2018-03-19T09:46:01.826Z,0.03
2018-03-19T09:48:29.352Z,0.25
2018-03-19T09:50:56.875Z,0.11
2018-03-19T09:53:24.378Z,0.20
2018-03-19T09:55:51.876Z,0.45
2018-03-19T09:58:19.385Z,0.70
2018-03-19T10:00:46.898Z,-0.04
2018-03-19T10:03:15.268Z,0.52
2018-03-19T10:05:42.763Z,0.59
2018-03-19T10:08:10.425Z,0.82
2018-03-19T10:10:37.932Z,0.50
2018-03-19T10:13:05.445Z,0.06
2018-03-19T10:15:32.982Z,-0.06
2018-03-19T10:18:00.473Z,0.45
2018-03-19T10:20:28.030Z,0.50
2018-03-19T10:22:55.532Z,0.49
2018-03-19T10:25:23.031Z,0.43
2018-03-19T10:27:50.579Z,0.76
2018-03-19T10:30:18.086Z,0.88
2018-03-19T10:32:45.601Z,1.05
2018-03-19T10:35:13.105Z,1.01
2018-03-19T10:37:40.615Z,0.52
2018-03-19T10:40:08.093Z,0.80
2018-03-19T10:42:35.569Z,0.88
2018-03-19T10:45:03.122Z,0.74
2018-03-19T10:47:30.647Z,0.19
2018-03-19T10:49:58.139Z,0.42
2018-03-19T10:52:25.731Z,0.54
2018-03-19T10:54:53.271Z,0.80
2018-03-19T10:57:20.785Z,0.81
2018-03-19T10:59:48.339Z,0.96
2018-03-19T11:02:15.847Z,0.86
2018-03-19T11:07:54.232Z,0.45
2018-03-19T11:10:21.798Z,0.53
2018-03-19T11:12:49.289Z,0.96
2018-03-19T11:15:16.855Z,0.44
2018-03-19T11:17:45.143Z,1.12
2018-03-19T11:20:12.659Z,1.41
2018-03-19T11:22:40.155Z,1.20
2018-03-19T11:25:07.683Z,0.85
2018-03-19T11:27:35.226Z,1.28
2018-03-19T11:30:02.724Z,1.10
2018-03-19T11:32:30.243Z,1.30
2018-03-19T11:34:57.748Z,1.01
2018-03-19T11:37:25.271Z,1.17
2018-03-19T11:39:52.803Z,1.20
2018-03-19T11:42:20.318Z,0.91
2018-03-19T11:44:47.825Z,1.04
2018-03-19T11:47:15.388Z,0.90
2018-03-19T11:49:42.880Z,1.04
2018-03-19T11:52:10.400Z,1.33
2018-03-19T11:54:37.918Z,1.21
2018-03-19T11:57:05.444Z,1.01
2018-03-19T11:59:32.974Z,1.40
2018-03-19T12:02:00.470Z,0.56
2018-03-19T12:04:27.993Z,1.03
2018-03-19T12:06:55.517Z,1.57
2018-03-19T12:09:23.008Z,1.59
2018-03-19T12:11:50.509Z,1.45
2018-03-19T12:14:18.009Z,1.56
2018-03-19T12:16:45.582Z,1.76
2018-03-19T12:19:13.103Z,1.87
2018-03-19T12:21:40.639Z,1.77
2018-03-19T12:24:08.179Z,1.96
2018-03-19T12:26:35.717Z,1.87
2018-03-19T12:29:03.235Z,1.97
2018-03-19T12:31:30.757Z,1.69
2018-03-19T12:33:58.284Z,1.67
2018-03-19T12:36:25.823Z,1.56
2018-03-19T12:38:53.314Z,1.78
2018-03-19T12:41:20.821Z,2.09
2018-03-19T12:43:48.425Z,2.23
2018-03-19T12:46:15.926Z,2.31
2018-03-19T12:48:43.469Z,2.19
2018-03-19T12:51:10.996Z,2.38
2018-03-19T12:53:38.569Z,2.14
2018-03-19T12:56:06.084Z,2.27
2018-03-19T12:58:33.607Z,2.52
2018-03-19T13:01:01.107Z,2.44
2018-03-19T13:03:28.684Z,2.48
2018-03-19T13:05:56.195Z,2.39
2018-03-19T13:08:23.695Z,2.42
2018-03-19T13:10:51.209Z,2.60
2018-03-19T13:13:18.726Z,2.31
2018-03-19T13:15:46.260Z,2.42
2018-03-19T13:18:13.767Z,2.41
2018-03-19T13:20:41.304Z,2.66
2018-03-19T13:23:08.853Z,2.65
2018-03-19T13:25:36.407Z,2.81
2018-03-19T13:28:03.948Z,2.78
2018-03-19T13:30:31.507Z,2.78
2018-03-19T13:32:59.046Z,2.83
2018-03-19T13:35:26.691Z,2.71
2018-03-19T13:37:54.234Z,2.65
2018-03-19T13:40:21.783Z,2.77
2018-03-19T13:42:49.275Z,2.89
2018-03-19T13:45:16.781Z,3.18
2018-03-19T13:47:44.273Z,3.13
2018-03-19T13:50:11.775Z,3.03
2018-03-19T13:52:39.288Z,2.87
2018-03-19T13:55:06.808Z,3.04
2018-03-19T13:57:34.309Z,2.84
2018-03-19T14:00:01.820Z,2.73
2018-03-19T14:02:29.394Z,2.66
2018-03-19T14:04:56.876Z,2.82
2018-03-19T14:07:24.388Z,2.85
2018-03-19T14:09:51.918Z,2.93
2018-03-19T14:12:19.463Z,2.88
2018-03-19T14:14:46.968Z,2.90
2018-03-19T14:17:14.500Z,2.99
2018-03-19T14:19:42.059Z,2.95
2018-03-19T14:22:09.563Z,2.99
2018-03-19T14:24:37.094Z,2.92
2018-03-19T14:27:04.625Z,2.93
2018-03-19T14:29:32.149Z,2.97
2018-03-19T14:31:59.665Z,3.09
2018-03-19T14:34:27.201Z,3.05
2018-03-19T14:36:54.716Z,2.97
2018-03-19T14:39:22.271Z,2.86
2018-03-19T14:41:49.767Z,2.83
2018-03-19T14:44:17.296Z,2.83
2018-03-19T14:46:44.798Z,2.92
2018-03-19T14:49:12.351Z,2.80
2018-03-19T14:51:39.844Z,2.74
2018-03-19T14:54:07.341Z,2.82
2018-03-19T14:56:34.873Z,2.94
2018-03-19T14:59:02.367Z,2.97
2018-03-19T15:01:29.894Z,2.97
2018-03-19T15:03:57.427Z,3.01
2018-03-19T15:06:24.921Z,2.85
2018-03-19T15:08:52.489Z,2.88
2018-03-19T15:11:20.015Z,2.95
2018-03-19T15:13:47.543Z,2.77
2018-03-19T15:16:15.113Z,2.95
2018-03-19T15:18:42.680Z,2.97
2018-03-19T15:21:10.176Z,2.96
2018-03-19T15:23:37.690Z,3.02
2018-03-19T15:26:05.192Z,3.01
2018-03-19T15:28:32.712Z,2.91
2018-03-19T15:31:00.205Z,3.11
2018-03-19T15:33:27.704Z,3.16
2018-03-19T15:35:55.222Z,3.17
2018-03-19T15:38:22.782Z,3.14
2018-03-19T15:40:50.286Z,2.95
2018-03-19T15:43:17.801Z,3.02
2018-03-19T15:45:45.341Z,3.08
2018-03-19T15:48:12.839Z,3.00
2018-03-19T15:50:40.384Z,3.07
2018-03-19T15:53:07.902Z,3.06
2018-03-19T15:55:36.040Z,3.02
2018-03-19T15:58:03.568Z,3.04
2018-03-19T16:00:31.071Z,2.92
2018-03-19T16:02:58.606Z,2.85
2018-03-19T16:05:26.121Z,2.94
2018-03-19T16:07:53.622Z,2.88
2018-03-19T16:10:21.151Z,2.92
2018-03-19T16:12:48.649Z,2.85
2018-03-19T16:15:16.188Z,2.92
2018-03-19T16:17:43.754Z,2.89
2018-03-19T16:20:11.267Z,2.95
2018-03-19T16:22:38.763Z,2.92
2018-03-19T16:25:06.287Z,2.87
2018-03-19T16:27:33.830Z,2.87
2018-03-19T16:30:01.384Z,2.86
2018-03-19T16:32:28.880Z,2.88
2018-03-19T16:34:56.459Z,2.79
2018-03-19T16:37:23.960Z,2.77
2018-03-19T16:39:51.467Z,2.77
2018-03-19T16:42:18.960Z,2.74
2018-03-19T16:44:46.530Z,2.72
2018-03-19T16:47:14.038Z,2.68
2018-03-19T16:49:41.549Z,2.65
2018-03-19T16:52:09.085Z,2.64
2018-03-19T16:54:36.749Z,2.65
2018-03-19T16:57:04.255Z,2.64
2018-03-19T16:59:31.790Z,2.60
2018-03-19T17:01:59.315Z,2.60
2018-03-19T17:04:26.893Z,2.57
2018-03-19T17:06:54.401Z,2.55
2018-03-19T17:09:21.895Z,2.54
2018-03-19T17:11:49.409Z,2.44
2018-03-19T17:14:16.944Z,2.44
2018-03-19T17:16:44.448Z,2.47
2018-03-19T17:19:12.020Z,2.37
2018-03-19T17:21:39.590Z,2.35
2018-03-19T17:24:07.186Z,2.33
2018-03-19T17:26:34.693Z,2.35
2018-03-19T17:29:02.218Z,2.26
2018-03-19T17:31:29.735Z,2.23
2018-03-19T17:33:57.265Z,2.19
2018-03-19T17:36:24.782Z,2.14
2018-03-19T17:38:52.274Z,2.04
2018-03-19T17:41:19.788Z,2.00
2018-03-19T17:43:47.313Z,1.94
2018-03-19T17:46:14.915Z,1.89
2018-03-19T17:48:42.470Z,1.89
2018-03-19T17:51:09.987Z,1.90
2018-03-19T17:53:37.585Z,1.84
2018-03-19T17:56:05.084Z,1.77
2018-03-19T17:58:32.598Z,1.79
2018-03-19T18:01:00.133Z,1.74
2018-03-19T18:03:27.660Z,1.68
2018-03-19T18:05:55.197Z,1.65
2018-03-19T18:08:23.372Z,1.62
2018-03-19T18:10:50.912Z,1.56
2018-03-19T18:13:18.450Z,1.53
2018-03-19T18:15:45.966Z,1.45
2018-03-19T18:18:13.489Z,1.24
2018-03-19T18:20:40.972Z,1.26
2018-03-19T18:23:12.089Z,1.22
2018-03-19T18:25:39.604Z,1.15
2018-03-19T18:28:07.143Z,0.99
2018-03-19T18:30:34.634Z,0.98
2018-03-19T18:33:03.904Z,0.90
2018-03-19T18:35:31.458Z,0.80
2018-03-19T18:38:02.413Z,0.77
2018-03-19T18:40:29.897Z,0.64
2018-03-19T18:42:57.507Z,0.57
2018-03-19T18:45:25.002Z,0.50
2018-03-19T18:47:52.532Z,0.41
2018-03-19T18:50:20.183Z,0.38
2018-03-19T18:52:47.676Z,0.32
2018-03-19T18:55:15.208Z,0.24
2018-03-19T18:57:42.760Z,0.16
2018-03-19T19:00:10.280Z,0.09
2018-03-19T19:02:37.817Z,0.01
2018-03-19T19:05:05.359Z,-0.06
2018-03-19T19:07:32.893Z,-0.08
2018-03-19T19:10:00.393Z,-0.11
2018-03-19T19:12:27.938Z,-0.18
2018-03-19T19:14:55.479Z,-0.22
2018-03-19T19:17:23.000Z,-0.25
2018-03-19T19:19:50.526Z,-0.33
2018-03-19T19:22:18.046Z,-0.53
2018-03-19T19:24:45.702Z,-0.51
2018-03-19T19:27:13.219Z,-0.52
2018-03-19T19:29:40.747Z,-0.62
2018-03-19T19:32:10.399Z,-0.60
2018-03-19T19:34:37.965Z,-0.65
2018-03-19T19:37:05.504Z,-0.69
2018-03-19T19:39:33.346Z,-0.69
2018-03-19T19:42:01.625Z,-0.75
2018-03-19T19:44:29.208Z,-0.79
2018-03-19T19:46:57.046Z,-0.82
2018-03-19T19:49:25.183Z,-0.91
2018-03-19T19:51:54.374Z,-0.94
2018-03-19T19:54:21.897Z,-0.94
2018-03-19T19:56:49.438Z,-0.99
2018-03-19T19:59:16.974Z,-1.01
2018-03-19T20:01:44.530Z,-1.05
2018-03-19T20:04:12.396Z,-1.08
2018-03-19T20:06:39.955Z,-1.11
2018-03-19T20:09:07.490Z,-1.14
2018-03-19T20:11:35.031Z,-1.15
2018-03-19T20:14:02.577Z,-1.16
2018-03-19T20:16:30.108Z,-1.21
2018-03-19T20:18:57.633Z,-1.25
2018-03-19T20:21:25.252Z,-1.25
2018-03-19T20:23:52.826Z,-1.30
2018-03-19T20:26:20.477Z,-1.35
2018-03-19T20:28:49.353Z,-1.33
2018-03-19T20:31:16.982Z,-1.36
2018-03-19T20:33:44.517Z,-1.39
2018-03-19T20:36:12.259Z,-1.44
2018-03-19T20:38:39.891Z,-1.50
2018-03-19T20:41:07.408Z,-1.54
2018-03-19T20:43:35.491Z,-1.58
2018-03-19T20:46:03.017Z,-1.58
2018-03-19T20:48:30.555Z,-1.60
2018-03-19T20:50:58.060Z,-1.64
2018-03-19T21:45:22.873Z,-2.40
2018-03-19T21:47:50.406Z,-2.35
2018-03-19T21:50:17.988Z,-2.34
2018-03-19T21:52:45.486Z,-2.39
2018-03-19T21:55:14.068Z,-2.40
2018-03-19T21:57:41.719Z,-2.43
2018-03-19T22:00:09.253Z,-2.42
2018-03-19T22:02:36.824Z,-2.42
2018-03-19T22:05:04.371Z,-2.47
2018-03-19T22:07:31.899Z,-2.52
2018-03-19T22:10:00.413Z,-2.58
2018-03-19T22:12:28.068Z,-2.55
2018-03-19T22:14:55.636Z,-2.54
2018-03-19T22:17:23.184Z,-2.58
2018-03-19T22:19:50.705Z,-2.60
2018-03-19T22:22:20.560Z,-2.63
2018-03-19T22:24:48.104Z,-2.66
2018-03-19T22:27:15.691Z,-2.70
2018-03-19T22:29:43.228Z,-2.64
2018-03-19T22:32:11.195Z,-2.65
2018-03-19T22:34:38.763Z,-2.66
2018-03-19T22:37:06.305Z,-2.63
2018-03-19T22:39:33.842Z,-2.64
2018-03-19T22:42:01.337Z,-2.65
2018-03-19T22:44:28.885Z,-2.69
2018-03-19T22:46:56.440Z,-2.68
2018-03-19T22:49:24.061Z,-2.70
2018-03-19T22:51:51.630Z,-2.93
2018-03-19T22:54:19.178Z,-3.32
2018-03-19T22:56:46.714Z,-3.31
2018-03-19T22:59:15.082Z,-3.24
2018-03-19T23:01:43.915Z,-3.21
2018-03-19T23:04:11.504Z,-3.20
2018-03-19T23:06:39.044Z,-3.16
2018-03-19T23:09:06.558Z,-3.19
2018-03-19T23:11:34.112Z,-3.14
2018-03-19T23:14:01.600Z,-3.15
2018-03-19T23:16:29.219Z,-3.19
2018-03-19T23:18:56.751Z,-3.19
2018-03-19T23:21:24.341Z,-3.22
2018-03-19T23:23:51.829Z,-3.17
2018-03-19T23:26:19.411Z,-3.17
2018-03-19T23:28:46.936Z,-3.16
2018-03-19T23:31:14.464Z,-3.16
2018-03-19T23:33:42.010Z,-3.17
2018-03-19T23:36:09.516Z,-3.17
2018-03-19T23:38:37.043Z,-3.17
2018-03-19T23:41:04.584Z,-3.11
2018-03-19T23:43:32.081Z,-3.11
2018-03-19T23:45:59.609Z,-3.19
2018-03-19T23:48:27.195Z,-3.21
2018-03-19T23:50:54.848Z,-3.22
2018-03-19T23:53:22.392Z,-3.23
2018-03-19T23:55:49.987Z,-3.23
2018-03-19T23:58:17.547Z,-3.24
